Time;durP1;ratioP1;P1;durP2;ratioP2;P2;SDS_P1;SDS_P2;PMS_P1;PMS_P2;Temp;Humidity;BMP_temperature;BMP_pressure;BME280_temperature;BME280_humidity;BME280_pressure;Samples;Min_cycle;Max_cycle;Signal;HPM_P1;HPM_P2
2021/11/06 00:01:18;;;;;;;8.93;6.13;;;;;;;;;;6196885;28;20513;-65
2021/11/06 00:04:19;;;;;;;8.60;5.88;;;;;;;;;;6201632;28;20154;-64
2021/11/06 00:07:20;;;;;;;9.38;5.90;;;;;;;;;;6186559;28;20127;-64
2021/11/06 00:10:22;;;;;;;9.20;6.78;;;;;;;;;;6213227;28;20136;-65
2021/11/06 00:13:25;;;;;;;14.80;6.88;;;;;;;;;;6229189;28;20075;-64
2021/11/06 00:16:26;;;;;;;17.65;7.03;;;;;;;;;;6198085;28;20138;-64
2021/11/06 00:19:28;;;;;;;10.13;6.32;;;;;;;;;;6201816;28;20057;-64
2021/11/06 00:22:30;;;;;;;11.07;6.20;;;;;;;;;;6201872;28;20045;-64
2021/11/06 00:25:31;;;;;;;8.88;6.60;;;;;;;;;;6198495;28;20765;-65
2021/11/06 00:28:34;;;;;;;9.63;6.32;;;;;;;;;;6200996;28;20038;-64
2021/11/06 00:31:35;;;;;;;11.43;6.32;;;;;;;;;;6181040;28;20050;-65
2021/11/06 00:34:38;;;;;;;12.55;7.28;;;;;;;;;;6198629;28;20127;-64
2021/11/06 00:37:39;;;;;;;16.95;10.02;;;;;;;;;;6196390;28;20051;-64
2021/11/06 00:40:41;;;;;;;15.85;9.77;;;;;;;;;;6190329;28;20172;-64
2021/11/06 00:43:43;;;;;;;12.52;8.23;;;;;;;;;;6210454;28;20052;-65
2021/11/06 00:46:45;;;;;;;13.57;7.97;;;;;;;;;;6192466;28;20232;-64
2021/11/06 00:49:46;;;;;;;13.82;8.52;;;;;;;;;;6216708;28;20041;-65
2021/11/06 00:52:48;;;;;;;14.40;8.65;;;;;;;;;;6203960;28;20192;-64
2021/11/06 00:55:50;;;;;;;13.43;8.00;;;;;;;;;;6196644;28;20122;-65
2021/11/06 00:58:52;;;;;;;11.02;6.97;;;;;;;;;;6204807;28;20192;-64
2021/11/06 01:01:54;;;;;;;12.75;7.28;;;;;;;;;;6186159;28;20064;-64
2021/11/06 01:04:56;;;;;;;13.75;7.97;;;;;;;;;;6198062;28;20389;-64
2021/11/06 01:07:58;;;;;;;10.93;7.05;;;;;;;;;;6197507;28;20140;-64
2021/11/06 01:10:59;;;;;;;11.55;6.85;;;;;;;;;;6187625;28;20489;-64
2021/11/06 01:14:02;;;;;;;14.43;7.40;;;;;;;;;;6218456;28;20046;-64
2021/11/06 01:17:04;;;;;;;14.07;8.50;;;;;;;;;;6193787;28;20128;-64
2021/11/06 01:20:06;;;;;;;10.55;7.43;;;;;;;;;;6203044;28;20050;-65
2021/11/06 01:23:08;;;;;;;11.35;7.95;;;;;;;;;;6195083;28;20544;-64
2021/11/06 01:26:10;;;;;;;11.55;8.13;;;;;;;;;;6188187;28;20569;-65
2021/11/06 01:29:13;;;;;;;13.32;8.02;;;;;;;;;;6195334;28;20092;-64
2021/11/06 01:32:14;;;;;;;11.57;7.65;;;;;;;;;;6190251;28;20132;-65
2021/11/06 01:35:15;;;;;;;11.43;7.60;;;;;;;;;;6201745;28;20916;-65
2021/11/06 01:38:17;;;;;;;15.57;8.23;;;;;;;;;;6214519;28;20450;-64
2021/11/06 01:41:18;;;;;;;13.57;7.97;;;;;;;;;;6199996;28;20061;-64
2021/11/06 01:44:23;;;;;;;10.35;7.68;;;;;;;;;;6216403;28;20175;-64
2021/11/06 01:47:25;;;;;;;10.70;7.65;;;;;;;;;;6205455;28;20054;-65
2021/11/06 01:50:26;;;;;;;13.60;7.97;;;;;;;;;;6206861;28;20030;-64
2021/11/06 01:53:28;;;;;;;11.57;7.72;;;;;;;;;;6222111;28;20486;-64
2021/11/06 01:56:30;;;;;;;11.98;7.82;;;;;;;;;;6211462;28;20134;-64
2021/11/06 01:59:32;;;;;;;11.82;8.48;;;;;;;;;;6220268;28;20045;-64
2021/11/06 02:02:35;;;;;;;13.88;9.13;;;;;;;;;;6204230;28;20150;-64
2021/11/06 02:05:36;;;;;;;14.73;9.02;;;;;;;;;;6198108;28;20145;-65
2021/11/06 02:08:38;;;;;;;14.07;9.32;;;;;;;;;;6198881;28;20092;-64
2021/11/06 02:11:39;;;;;;;14.75;9.65;;;;;;;;;;6196522;28;20042;-64
2021/11/06 02:14:42;;;;;;;13.27;9.05;;;;;;;;;;6210991;28;20042;-64
2021/11/06 02:17:43;;;;;;;13.45;8.52;;;;;;;;;;6194026;28;20050;-64
2021/11/06 02:20:46;;;;;;;15.13;9.93;;;;;;;;;;6190501;28;20046;-64
2021/11/06 02:23:49;;;;;;;12.95;8.52;;;;;;;;;;6210399;28;20054;-64
2021/11/06 02:26:50;;;;;;;14.45;9.20;;;;;;;;;;6210050;28;20092;-64
2021/11/06 02:29:51;;;;;;;13.85;9.25;;;;;;;;;;6218844;28;20169;-64
2021/11/06 02:32:53;;;;;;;13.27;8.80;;;;;;;;;;6183812;28;20053;-64
2021/11/06 02:35:56;;;;;;;16.02;10.00;;;;;;;;;;6195640;28;20050;-64
2021/11/06 02:38:57;;;;;;;13.07;9.18;;;;;;;;;;6206859;28;20219;-64
2021/11/06 02:42:00;;;;;;;13.98;9.23;;;;;;;;;;6208405;28;20140;-64
2021/11/06 02:45:03;;;;;;;14.82;9.63;;;;;;;;;;6220159;28;20045;-64
2021/11/06 02:48:05;;;;;;;13.10;9.30;;;;;;;;;;6182693;28;20144;-64
2021/11/06 02:51:08;;;;;;;17.88;10.07;;;;;;;;;;6184903;28;20157;-64
2021/11/06 02:54:09;;;;;;;16.35;9.05;;;;;;;;;;6214846;28;20042;-64
2021/11/06 02:57:11;;;;;;;12.70;8.48;;;;;;;;;;6194971;28;20132;-64
2021/11/06 03:00:13;;;;;;;12.85;7.90;;;;;;;;;;6200961;28;20054;-65
2021/11/06 03:03:14;;;;;;;14.13;7.72;;;;;;;;;;6192717;28;20042;-64
2021/11/06 03:06:17;;;;;;;12.50;7.50;;;;;;;;;;6189673;28;20042;-64
2021/11/06 03:09:18;;;;;;;9.77;7.05;;;;;;;;;;6200138;28;20050;-64
2021/11/06 03:12:20;;;;;;;11.27;6.65;;;;;;;;;;6189736;28;20050;-64
2021/11/06 03:15:22;;;;;;;10.95;7.00;;;;;;;;;;6190509;28;20623;-65
2021/11/06 03:18:23;;;;;;;10.52;6.82;;;;;;;;;;6192667;28;20061;-65
2021/11/06 03:21:27;;;;;;;10.63;6.70;;;;;;;;;;6191336;28;20095;-64
2021/11/06 03:24:29;;;;;;;9.00;5.50;;;;;;;;;;6198653;28;20497;-64
2021/11/06 03:27:30;;;;;;;10.27;6.47;;;;;;;;;;6188204;28;20038;-64
2021/11/06 03:30:31;;;;;;;10.23;6.22;;;;;;;;;;6193720;28;20038;-64
2021/11/06 03:33:33;;;;;;;8.73;6.30;;;;;;;;;;6193019;28;20556;-64
2021/11/06 03:36:36;;;;;;;9.98;6.60;;;;;;;;;;6191408;28;20137;-64
2021/11/06 03:39:38;;;;;;;9.45;6.20;;;;;;;;;;6198214;28;20054;-64
2021/11/06 03:42:40;;;;;;;9.63;6.10;;;;;;;;;;6191970;28;20054;-64
2021/11/06 03:45:41;;;;;;;7.38;5.53;;;;;;;;;;6187509;28;20050;-65
2021/11/06 03:48:43;;;;;;;9.80;5.80;;;;;;;;;;6194049;28;20046;-64
2021/11/06 03:51:46;;;;;;;8.95;5.50;;;;;;;;;;6192069;28;20348;-64
2021/11/06 03:54:47;;;;;;;7.80;5.00;;;;;;;;;;6197731;28;20038;-64
2021/11/06 03:57:49;;;;;;;6.88;4.80;;;;;;;;;;6195513;28;20486;-64
2021/11/06 04:00:50;;;;;;;7.07;4.93;;;;;;;;;;6187961;28;20054;-64
2021/11/06 04:03:52;;;;;;;7.85;4.90;;;;;;;;;;6197936;28;20077;-64
2021/11/06 04:06:55;;;;;;;8.60;4.75;;;;;;;;;;6185313;28;20062;-64
2021/11/06 04:09:56;;;;;;;7.03;4.07;;;;;;;;;;6198596;28;20053;-64
2021/11/06 04:12:58;;;;;;;6.10;4.30;;;;;;;;;;6208855;28;20359;-64
2021/11/06 04:15:59;;;;;;;5.85;3.97;;;;;;;;;;6191661;28;20053;-65
2021/11/06 04:19:01;;;;;;;10.38;4.38;;;;;;;;;;6210991;28;20057;-64
2021/11/06 04:22:04;;;;;;;8.43;3.95;;;;;;;;;;6205582;28;20057;-64
2021/11/06 04:25:06;;;;;;;5.85;3.90;;;;;;;;;;6199108;28;20057;-65
2021/11/06 04:28:07;;;;;;;7.00;4.47;;;;;;;;;;6199710;28;20046;-64
2021/11/06 04:31:09;;;;;;;6.43;3.63;;;;;;;;;;6189233;28;20466;-65
2021/11/06 04:34:10;;;;;;;5.90;3.95;;;;;;;;;;6199861;28;20152;-66
2021/11/06 04:37:14;;;;;;;6.18;3.58;;;;;;;;;;6203521;28;20053;-65
2021/11/06 04:40:16;;;;;;;6.63;3.80;;;;;;;;;;6207874;28;20136;-66
2021/11/06 04:43:17;;;;;;;5.32;3.58;;;;;;;;;;6214214;28;20115;-66
2021/11/06 04:46:19;;;;;;;4.40;3.22;;;;;;;;;;6202462;28;20099;-65
2021/11/06 04:49:20;;;;;;;4.82;3.40;;;;;;;;;;6211162;28;20201;-65
2021/11/06 04:52:23;;;;;;;5.78;2.95;;;;;;;;;;6205272;28;20137;-66
2021/11/06 04:55:25;;;;;;;7.13;3.00;;;;;;;;;;6210909;28;20062;-65
2021/11/06 04:58:27;;;;;;;4.50;3.05;;;;;;;;;;6217477;28;20493;-65
2021/11/06 05:01:29;;;;;;;5.55;2.83;;;;;;;;;;6194952;28;20128;-65
2021/11/06 05:04:30;;;;;;;4.03;2.33;;;;;;;;;;6199469;28;20096;-65
2021/11/06 05:07:33;;;;;;;3.67;2.67;;;;;;;;;;6193332;28;20511;-66
2021/11/06 05:10:34;;;;;;;3.78;2.13;;;;;;;;;;6195610;28;20675;-65
2021/11/06 05:13:36;;;;;;;4.40;2.55;;;;;;;;;;6204634;28;20205;-65
2021/11/06 05:16:37;;;;;;;3.40;2.30;;;;;;;;;;6188320;28;20095;-65
2021/11/06 05:19:38;;;;;;;4.20;2.22;;;;;;;;;;6192194;28;20088;-65
2021/11/06 05:22:41;;;;;;;5.95;2.35;;;;;;;;;;6199811;28;20177;-65
2021/11/06 05:25:44;;;;;;;2.97;2.20;;;;;;;;;;6203597;28;20133;-65
2021/11/06 05:28:45;;;;;;;4.18;2.53;;;;;;;;;;6206105;28;20521;-65
2021/11/06 05:31:47;;;;;;;4.43;2.67;;;;;;;;;;6189881;28;20558;-65
2021/11/06 05:34:48;;;;;;;4.28;2.30;;;;;;;;;;6208718;28;20128;-66
2021/11/06 05:37:51;;;;;;;4.55;2.55;;;;;;;;;;6191338;28;20047;-65
2021/11/06 05:40:52;;;;;;;4.32;2.10;;;;;;;;;;6196114;28;20128;-65
2021/11/06 05:43:53;;;;;;;4.07;2.10;;;;;;;;;;6204900;28;20136;-65
2021/11/06 05:46:55;;;;;;;5.03;2.75;;;;;;;;;;6189229;28;20078;-66
2021/11/06 05:49:57;;;;;;;3.47;1.95;;;;;;;;;;6201211;28;20046;-66
2021/11/06 05:52:59;;;;;;;4.20;2.10;;;;;;;;;;6191638;28;20046;-65
2021/11/06 05:56:01;;;;;;;4.53;1.98;;;;;;;;;;6203879;28;20542;-65
2021/11/06 05:59:02;;;;;;;3.15;2.03;;;;;;;;;;6220113;28;20137;-65
2021/11/06 06:02:04;;;;;;;3.85;2.10;;;;;;;;;;6195025;28;20046;-65
2021/11/06 06:05:06;;;;;;;3.35;2.00;;;;;;;;;;6195558;28;20140;-66
2021/11/06 06:08:09;;;;;;;3.30;2.08;;;;;;;;;;6198785;28;20041;-65
2021/11/06 06:11:10;;;;;;;3.50;1.98;;;;;;;;;;6191831;28;20061;-66
2021/11/06 06:14:11;;;;;;;4.38;2.15;;;;;;;;;;6206183;28;20188;-65
2021/11/06 06:17:13;;;;;;;4.82;2.13;;;;;;;;;;6185609;28;20506;-65
2021/11/06 06:20:14;;;;;;;4.30;2.25;;;;;;;;;;6197089;28;20201;-66
2021/11/06 06:23:17;;;;;;;4.95;2.95;;;;;;;;;;6200156;28;20133;-65
2021/11/06 06:26:20;;;;;;;6.28;3.17;;;;;;;;;;6191998;28;20061;-65
2021/11/06 06:29:21;;;;;;;6.10;3.03;;;;;;;;;;6200530;28;20494;-65
2021/11/06 06:32:23;;;;;;;5.00;2.83;;;;;;;;;;6187722;28;20388;-66
2021/11/06 06:35:24;;;;;;;4.50;2.53;;;;;;;;;;6190856;28;20038;-65
2021/11/06 06:38:27;;;;;;;3.67;2.28;;;;;;;;;;6202937;28;20049;-66
2021/11/06 06:41:28;;;;;;;3.60;2.20;;;;;;;;;;6195335;28;20046;-65
2021/11/06 06:44:30;;;;;;;4.15;2.40;;;;;;;;;;6206058;28;20101;-65
2021/11/06 06:47:32;;;;;;;3.63;2.40;;;;;;;;;;6189313;28;20046;-66
2021/11/06 06:50:33;;;;;;;6.07;2.58;;;;;;;;;;6189167;28;20049;-66
2021/11/06 06:53:36;;;;;;;6.32;2.90;;;;;;;;;;6206398;28;20120;-64
2021/11/06 06:56:37;;;;;;;5.00;2.90;;;;;;;;;;6190002;28;20058;-64
2021/11/06 06:59:38;;;;;;;4.55;2.72;;;;;;;;;;6204995;28;20526;-65
2021/11/06 07:02:40;;;;;;;4.93;2.33;;;;;;;;;;6201692;28;20605;-65
2021/11/06 07:05:41;;;;;;;4.70;2.58;;;;;;;;;;6200727;28;20145;-65
2021/11/06 07:08:45;;;;;;;6.53;2.72;;;;;;;;;;6203943;28;20041;-65
2021/11/06 07:11:46;;;;;;;3.88;2.40;;;;;;;;;;6191978;28;20104;-65
2021/11/06 07:14:48;;;;;;;5.60;2.90;;;;;;;;;;6203073;28;20409;-65
2021/11/06 07:17:49;;;;;;;5.32;2.80;;;;;;;;;;6181027;28;20049;-65
2021/11/06 07:20:50;;;;;;;4.25;2.55;;;;;;;;;;6190933;28;20042;-65
2021/11/06 07:23:53;;;;;;;4.22;2.90;;;;;;;;;;6206776;28;20045;-65
2021/11/06 07:26:55;;;;;;;6.30;2.33;;;;;;;;;;6205429;28;20065;-65
2021/11/06 07:29:56;;;;;;;4.38;2.60;;;;;;;;;;6210011;28;20152;-65
2021/11/06 07:32:58;;;;;;;4.97;3.35;;;;;;;;;;6190883;28;20128;-63
2021/11/06 07:35:59;;;;;;;4.78;2.35;;;;;;;;;;6196354;28;20042;-63
2021/11/06 07:39:02;;;;;;;3.60;2.20;;;;;;;;;;6208496;28;20069;-64
2021/11/06 07:42:04;;;;;;;4.53;2.45;;;;;;;;;;6203067;28;20054;-63
2021/11/06 07:45:06;;;;;;;3.72;2.55;;;;;;;;;;6196839;28;20172;-65
2021/11/06 07:48:07;;;;;;;3.53;2.55;;;;;;;;;;6198213;28;20135;-64
2021/11/06 07:51:09;;;;;;;4.18;2.17;;;;;;;;;;6197179;28;20123;-64
2021/11/06 07:54:12;;;;;;;2.33;1.63;;;;;;;;;;6204154;28;20410;-65
2021/11/06 07:57:13;;;;;;;3.47;2.30;;;;;;;;;;6199691;28;20141;-64
2021/11/06 08:00:16;;;;;;;4.53;2.60;;;;;;;;;;6199280;28;20565;-66
2021/11/06 08:03:17;;;;;;;3.92;2.08;;;;;;;;;;6195023;28;20053;-65
2021/11/06 08:06:19;;;;;;;7.18;2.50;;;;;;;;;;6194490;28;20509;-66
2021/11/06 08:09:21;;;;;;;3.75;2.03;;;;;;;;;;6202505;28;20091;-65
2021/11/06 08:12:23;;;;;;;4.28;2.53;;;;;;;;;;6198216;28;20061;-65
2021/11/06 08:15:24;;;;;;;4.80;2.33;;;;;;;;;;6191938;28;20821;-66
2021/11/06 08:18:26;;;;;;;3.72;1.95;;;;;;;;;;6196515;28;20561;-66
2021/11/06 08:21:28;;;;;;;4.70;2.40;;;;;;;;;;6186823;28;20357;-66
2021/11/06 08:24:31;;;;;;;3.90;2.65;;;;;;;;;;6194900;28;20438;-66
2021/11/06 08:27:33;;;;;;;3.77;2.50;;;;;;;;;;6196142;28;20068;-66
2021/11/06 08:30:34;;;;;;;6.93;2.30;;;;;;;;;;6198705;28;20045;-66
2021/11/06 08:33:35;;;;;;;4.03;2.30;;;;;;;;;;6192529;28;20049;-66
2021/11/06 08:36:38;;;;;;;6.95;2.63;;;;;;;;;;6191300;28;20054;-66
2021/11/06 08:39:41;;;;;;;3.13;2.10;;;;;;;;;;6197025;28;20057;-66
2021/11/06 08:42:42;;;;;;;3.38;2.10;;;;;;;;;;6190479;28;20052;-65
2021/11/06 08:45:46;;;;;;;3.15;2.00;;;;;;;;;;6205710;28;20510;-66
2021/11/06 08:48:47;;;;;;;3.00;2.05;;;;;;;;;;6200637;28;20058;-66
2021/11/06 08:51:49;;;;;;;3.95;2.22;;;;;;;;;;6212235;28;20045;-65
2021/11/06 08:54:52;;;;;;;5.53;2.38;;;;;;;;;;6221657;28;20256;-66
2021/11/06 08:57:53;;;;;;;4.97;2.65;;;;;;;;;;6211020;28;20072;-64
2021/11/06 09:00:55;;;;;;;4.88;2.88;;;;;;;;;;6198293;28;20462;-66
2021/11/06 09:03:57;;;;;;;5.00;2.65;;;;;;;;;;6204382;28;20050;-66
2021/11/06 09:06:58;;;;;;;5.22;2.40;;;;;;;;;;6190668;28;20097;-65
2021/11/06 09:10:01;;;;;;;3.78;2.55;;;;;;;;;;6202121;28;20057;-66
2021/11/06 09:13:03;;;;;;;9.05;2.90;;;;;;;;;;6192180;28;20041;-66
2021/11/06 09:16:05;;;;;;;4.65;2.50;;;;;;;;;;6188020;28;20069;-66
2021/11/06 09:19:07;;;;;;;4.25;2.40;;;;;;;;;;6200211;28;20176;-66
2021/11/06 09:22:08;;;;;;;4.57;2.72;;;;;;;;;;6195180;28;20508;-66
2021/11/06 09:25:11;;;;;;;5.72;2.83;;;;;;;;;;6197916;28;20521;-66
2021/11/06 09:28:13;;;;;;;3.20;2.28;;;;;;;;;;6204110;28;20058;-66
2021/11/06 09:31:15;;;;;;;4.03;2.63;;;;;;;;;;6187750;28;20145;-64
2021/11/06 09:34:16;;;;;;;5.45;2.55;;;;;;;;;;6204108;28;20104;-66
2021/11/06 09:37:18;;;;;;;3.35;2.50;;;;;;;;;;6195272;28;20100;-66
2021/11/06 09:40:21;;;;;;;5.28;2.95;;;;;;;;;;6196093;28;20444;-66
2021/11/06 09:43:22;;;;;;;4.97;3.00;;;;;;;;;;6203379;28;20041;-65
2021/11/06 09:46:25;;;;;;;6.85;3.03;;;;;;;;;;6192730;28;20053;-65
2021/11/06 09:49:26;;;;;;;4.07;2.80;;;;;;;;;;6198384;28;20478;-65
2021/11/06 09:52:28;;;;;;;3.80;2.72;;;;;;;;;;6195307;28;20517;-65
2021/11/06 09:55:32;;;;;;;5.30;3.00;;;;;;;;;;6194181;28;20054;-65
2021/11/06 09:58:34;;;;;;;4.78;2.85;;;;;;;;;;6204104;28;20077;-62
2021/11/06 10:01:36;;;;;;;4.20;2.67;;;;;;;;;;6196934;28;20065;-64
2021/11/06 10:04:38;;;;;;;4.93;2.80;;;;;;;;;;6196597;28;20084;-65
2021/11/06 10:07:39;;;;;;;3.67;2.40;;;;;;;;;;6204874;28;20712;-65
2021/11/06 10:10:42;;;;;;;3.30;3.00;;;;;;;;;;6209537;28;20049;-66
2021/11/06 10:13:51;;;;;;;5.80;3.00;;;;;;;;;;6214345;28;20046;-66
2021/11/06 10:16:53;;;;;;;5.40;3.28;;;;;;;;;;6185676;28;20136;-65
2021/11/06 10:19:54;;;;;;;6.45;3.60;;;;;;;;;;6198131;28;22718;-65
2021/11/06 10:22:57;;;;;;;9.15;3.40;;;;;;;;;;6198734;28;20045;-65
2021/11/06 10:26:10;;;;;;;5.47;3.20;;;;;;;;;;6189789;28;20046;-66
2021/11/06 10:29:13;;;;;;;8.85;3.05;;;;;;;;;;6201655;28;20050;-66
2021/11/06 10:32:14;;;;;;;6.80;3.63;;;;;;;;;;6188349;28;20405;-66
2021/11/06 10:35:17;;;;;;;4.15;2.97;;;;;;;;;;6194444;28;20046;-67
2021/11/06 10:38:21;;;;;;;6.68;3.40;;;;;;;;;;6196928;28;20543;-65
2021/11/06 10:41:28;;;;;;;6.40;2.33;;;;;;;;;;6202583;28;20042;-66
2021/11/06 10:44:29;;;;;;;3.17;2.10;;;;;;;;;;6206002;28;20050;-65
2021/11/06 10:47:46;;;;;;;3.28;2.30;;;;;;;;;;6186458;28;20103;-66
2021/11/06 10:50:53;;;;;;;4.20;2.25;;;;;;;;;;6188452;28;20788;-66
2021/11/06 10:53:56;;;;;;;2.72;2.13;;;;;;;;;;6201741;28;20042;-66
2021/11/06 10:57:01;;;;;;;5.57;2.75;;;;;;;;;;6198967;28;20180;-64
2021/11/06 11:00:08;;;;;;;6.78;3.10;;;;;;;;;;6204322;28;20053;-69
2021/11/06 11:03:24;;;;;;;7.00;3.20;;;;;;;;;;6194182;28;20526;-68
2021/11/06 11:06:32;;;;;;;4.63;3.20;;;;;;;;;;6189061;28;20139;-68
2021/11/06 11:09:37;;;;;;;6.07;2.78;;;;;;;;;;6200313;28;20418;-69
2021/11/06 11:12:39;;;;;;;3.78;2.28;;;;;;;;;;6193812;28;20528;-69
2021/11/06 11:15:41;;;;;;;3.22;2.53;;;;;;;;;;6190630;28;20898;-69
2021/11/06 11:18:44;;;;;;;4.93;2.63;;;;;;;;;;6204668;28;20095;-68
2021/11/06 11:21:47;;;;;;;2.90;2.20;;;;;;;;;;6195253;28;20042;-69
2021/11/06 11:24:48;;;;;;;3.33;2.85;;;;;;;;;;6201877;28;20144;-68
2021/11/06 11:27:51;;;;;;;3.15;2.30;;;;;;;;;;6188261;28;20133;-67
2021/11/06 11:30:53;;;;;;;3.50;2.80;;;;;;;;;;6187019;28;20188;-69
2021/11/06 11:33:55;;;;;;;3.92;2.92;;;;;;;;;;6194097;28;20046;-68
2021/11/06 11:36:57;;;;;;;3.60;2.78;;;;;;;;;;6191982;28;20042;-65
2021/11/06 11:40:00;;;;;;;3.85;2.25;;;;;;;;;;6199797;28;20088;-66
2021/11/06 11:43:01;;;;;;;;;;;;;;;;;;6191403;28;20042;-66
2021/11/06 11:46:07;;;;;;;3.72;2.72;;;;;;;;;;6185603;28;19930;-67
2021/11/06 11:49:09;;;;;;;2.88;2.50;;;;;;;;;;6197753;28;20492;-66
2021/11/06 11:52:29;;;;;;;3.92;2.58;;;;;;;;;;6191436;28;20199;-65
2021/11/06 11:55:33;;;;;;;4.85;2.47;;;;;;;;;;6189588;28;20053;-65
2021/11/06 11:58:35;;;;;;;3.45;2.22;;;;;;;;;;6206890;28;20045;-65
2021/11/06 12:01:38;;;;;;;3.20;2.65;;;;;;;;;;6186496;28;20606;-66
2021/11/06 12:04:40;;;;;;;6.25;3.50;;;;;;;;;;6208461;28;20053;-65
2021/11/06 12:07:42;;;;;;;5.88;3.33;;;;;;;;;;6190246;28;20046;-65
2021/11/06 12:10:44;;;;;;;4.68;2.67;;;;;;;;;;6194083;28;20034;-65
2021/11/06 12:13:51;;;;;;;4.27;3.30;;;;;;;;;;6202503;28;20050;-66
2021/11/06 12:16:57;;;;;;;4.68;3.63;;;;;;;;;;6182396;28;20520;-64
2021/11/06 12:19:58;;;;;;;3.67;2.88;;;;;;;;;;6211513;28;20053;-68
2021/11/06 12:22:59;;;;;;;4.80;2.85;;;;;;;;;;6204801;28;20512;-66
2021/11/06 12:26:12;;;;;;;5.40;2.88;;;;;;;;;;6205068;28;20581;-67
2021/11/06 12:29:33;;;;;;;3.88;2.80;;;;;;;;;;6210331;28;20651;-67
2021/11/06 12:32:36;;;;;;;4.28;2.90;;;;;;;;;;6197438;28;20104;-67
2021/11/06 12:35:38;;;;;;;4.50;2.88;;;;;;;;;;6202981;28;20136;-67
2021/11/06 12:38:39;;;;;;;4.68;3.20;;;;;;;;;;6211286;28;20060;-66
2021/11/06 12:41:40;;;;;;;5.05;3.08;;;;;;;;;;6202071;28;20046;-66
2021/11/06 12:44:56;;;;;;;4.78;2.92;;;;;;;;;;6205063;28;20060;-67
2021/11/06 12:48:08;;;;;;;4.32;3.10;;;;;;;;;;6199324;28;20049;-67
2021/11/06 12:51:10;;;;;;;7.38;3.20;;;;;;;;;;6198243;28;20038;-67
2021/11/06 12:54:13;;;;;;;5.13;3.00;;;;;;;;;;6210695;28;20576;-67
2021/11/06 12:57:27;;;;;;;5.38;3.28;;;;;;;;;;6200896;28;20046;-67
2021/11/06 13:00:30;;;;;;;5.22;2.97;;;;;;;;;;6201015;28;20188;-67
2021/11/06 13:03:40;;;;;;;4.63;3.33;;;;;;;;;;6208344;28;20042;-67
2021/11/06 13:06:42;;;;;;;4.65;2.78;;;;;;;;;;6203531;28;20095;-67
2021/11/06 13:09:45;;;;;;;3.85;2.78;;;;;;;;;;6206331;28;20140;-67
2021/11/06 13:12:46;;;;;;;6.65;3.17;;;;;;;;;;6202731;28;20050;-67
2021/11/06 13:15:49;;;;;;;6.30;3.05;;;;;;;;;;6193180;28;20050;-67
2021/11/06 13:18:52;;;;;;;3.97;2.77;;;;;;;;;;6198519;28;20053;-67
2021/11/06 13:21:53;;;;;;;3.92;3.20;;;;;;;;;;6203548;28;20119;-67
2021/11/06 13:24:55;;;;;;;4.32;3.30;;;;;;;;;;6206598;28;20188;-67
2021/11/06 13:28:01;;;;;;;4.35;3.20;;;;;;;;;;6203719;28;20151;-67
2021/11/06 13:31:04;;;;;;;5.35;3.65;;;;;;;;;;6200396;28;20241;-67
2021/11/06 13:34:06;;;;;;;4.95;4.07;;;;;;;;;;6211242;28;20937;-67
2021/11/06 13:37:15;;;;;;;6.03;3.63;;;;;;;;;;6205233;28;20140;-67
2021/11/06 13:40:16;;;;;;;7.22;3.30;;;;;;;;;;6206172;28;20123;-67
2021/11/06 13:43:19;;;;;;;4.55;3.03;;;;;;;;;;6216986;28;20045;-67
2021/11/06 13:46:24;;;;;;;3.97;3.10;;;;;;;;;;6201289;28;20198;-67
2021/11/06 13:49:29;;;;;;;4.38;3.00;;;;;;;;;;6210909;28;20521;-67
2021/11/06 13:52:30;;;;;;;7.45;4.32;;;;;;;;;;6207652;28;20050;-68
2021/11/06 13:55:32;;;;;;;5.22;3.17;;;;;;;;;;6201273;28;20549;-67
2021/11/06 13:58:33;;;;;;;3.70;3.05;;;;;;;;;;6217392;28;20450;-67
2021/11/06 14:01:34;;;;;;;4.32;3.22;;;;;;;;;;6197410;28;20229;-67
2021/11/06 14:04:42;;;;;;;3.95;3.17;;;;;;;;;;6218329;28;20046;-67
2021/11/06 14:07:46;;;;;;;3.55;3.10;;;;;;;;;;6201891;28;20054;-66
2021/11/06 14:10:47;;;;;;;4.78;3.17;;;;;;;;;;6207765;28;20417;-67
2021/11/06 14:13:54;;;;;;;4.50;3.22;;;;;;;;;;6213460;28;20052;-66
2021/11/06 14:17:02;;;;;;;3.42;2.63;;;;;;;;;;6193267;28;20080;-66
2021/11/06 14:20:06;;;;;;;3.47;2.80;;;;;;;;;;6211159;28;20085;-68
2021/11/06 14:23:09;;;;;;;7.15;3.83;;;;;;;;;;6209274;28;20096;-67
2021/11/06 14:26:11;;;;;;;5.05;3.75;;;;;;;;;;6200886;28;20142;-67
2021/11/06 14:29:13;;;;;;;4.40;3.20;;;;;;;;;;6218278;28;20068;-67
2021/11/06 14:32:14;;;;;;;3.72;2.90;;;;;;;;;;6201720;28;20140;-66
2021/11/06 14:35:17;;;;;;;5.28;3.03;;;;;;;;;;6211933;28;20104;-66
2021/11/06 14:38:19;;;;;;;5.72;3.50;;;;;;;;;;6207938;28;20046;-65
2021/11/06 14:41:22;;;;;;;6.57;3.38;;;;;;;;;;6192866;28;20050;-65
2021/11/06 14:44:27;;;;;;;4.07;3.23;;;;;;;;;;6200276;28;20050;-65
2021/11/06 14:47:29;;;;;;;4.78;2.92;;;;;;;;;;6185225;28;20065;-65
2021/11/06 14:50:32;;;;;;;5.40;3.50;;;;;;;;;;6188477;28;21321;-65
2021/11/06 14:53:33;;;;;;;4.35;3.30;;;;;;;;;;6199147;28;20068;-65
2021/11/06 14:56:36;;;;;;;5.82;3.75;;;;;;;;;;6185905;28;20102;-65
2021/11/06 14:59:38;;;;;;;3.67;3.05;;;;;;;;;;6200498;28;20413;-65
2021/11/06 15:02:42;;;;;;;5.43;3.55;;;;;;;;;;6185314;28;20142;-65
2021/11/06 15:05:46;;;;;;;4.20;3.33;;;;;;;;;;6179620;28;20043;-65
2021/11/06 15:08:47;;;;;;;4.32;3.30;;;;;;;;;;6203590;28;20049;-64
2021/11/06 15:11:48;;;;;;;4.90;3.33;;;;;;;;;;6188305;28;20058;-65
2021/11/06 15:14:50;;;;;;;5.90;3.67;;;;;;;;;;6201314;28;20057;-65
2021/11/06 15:17:52;;;;;;;6.60;3.50;;;;;;;;;;6177870;28;20135;-65
2021/11/06 15:20:55;;;;;;;5.00;3.70;;;;;;;;;;6183891;28;20057;-65
2021/11/06 15:23:56;;;;;;;4.90;3.30;;;;;;;;;;6201619;28;20460;-65
2021/11/06 15:26:58;;;;;;;5.55;3.63;;;;;;;;;;6194903;28;20081;-65
2021/11/06 15:29:59;;;;;;;4.90;3.70;;;;;;;;;;6199369;28;20048;-65
2021/11/06 15:33:01;;;;;;;4.70;3.60;;;;;;;;;;6183305;28;20061;-65
2021/11/06 15:36:04;;;;;;;5.55;3.55;;;;;;;;;;6187812;28;20042;-65
2021/11/06 15:39:06;;;;;;;5.33;3.73;;;;;;;;;;6197823;28;20060;-65
2021/11/06 15:42:07;;;;;;;4.75;3.58;;;;;;;;;;6194329;28;20469;-65
2021/11/06 15:45:09;;;;;;;6.88;4.15;;;;;;;;;;6198635;28;20546;-66
2021/11/06 15:48:12;;;;;;;5.25;3.97;;;;;;;;;;6188649;28;20046;-65
2021/11/06 15:51:23;;;;;;;5.75;3.85;;;;;;;;;;6187859;28;20188;-65
2021/11/06 15:54:25;;;;;;;6.63;4.03;;;;;;;;;;6200012;28;20046;-65
2021/11/06 15:57:26;;;;;;;7.13;4.35;;;;;;;;;;6191352;28;20148;-65
2021/11/06 16:00:28;;;;;;;6.38;4.18;;;;;;;;;;6187692;28;20069;-67
2021/11/06 16:03:29;;;;;;;10.00;5.93;;;;;;;;;;6189558;28;20073;-67
2021/11/06 16:06:32;;;;;;;6.63;4.28;;;;;;;;;;6192399;28;20168;-64
2021/11/06 16:09:34;;;;;;;7.97;5.05;;;;;;;;;;6195502;28;20042;-64
2021/11/06 16:12:36;;;;;;;8.38;5.03;;;;;;;;;;6188854;28;20379;-64
2021/11/06 16:15:41;;;;;;;6.50;4.40;;;;;;;;;;6190387;28;20046;-67
2021/11/06 16:18:47;;;;;;;7.22;4.65;;;;;;;;;;6196092;28;20045;-66
2021/11/06 16:21:51;;;;;;;7.20;4.90;;;;;;;;;;6188897;28;20416;-66
2021/11/06 16:24:53;;;;;;;8.35;4.50;;;;;;;;;;6197809;28;20157;-66
2021/11/06 16:27:55;;;;;;;7.50;4.78;;;;;;;;;;6191503;28;20050;-66
2021/11/06 16:30:57;;;;;;;8.40;4.85;;;;;;;;;;6189129;28;20049;-66
2021/11/06 16:34:00;;;;;;;9.52;5.35;;;;;;;;;;6193251;28;20046;-66
2021/11/06 16:37:03;;;;;;;8.07;5.18;;;;;;;;;;6189657;28;20128;-65
2021/11/06 16:40:06;;;;;;;9.10;5.27;;;;;;;;;;6199001;28;20425;-66
2021/11/06 16:43:07;;;;;;;8.27;5.25;;;;;;;;;;6203181;28;20042;-66
2021/11/06 16:46:11;;;;;;;10.15;5.32;;;;;;;;;;6192437;28;20089;-66
2021/11/06 16:49:12;;;;;;;9.60;5.78;;;;;;;;;;6206335;28;20577;-66
2021/11/06 16:52:16;;;;;;;10.63;5.78;;;;;;;;;;6198510;28;20078;-66
2021/11/06 16:55:18;;;;;;;9.45;5.60;;;;;;;;;;6204273;28;20497;-66
2021/11/06 16:58:20;;;;;;;9.35;5.72;;;;;;;;;;6216466;28;21008;-66
2021/11/06 17:01:21;;;;;;;9.75;6.38;;;;;;;;;;6180070;28;20566;-66
2021/11/06 17:04:22;;;;;;;10.40;6.47;;;;;;;;;;6202229;28;20482;-66
2021/11/06 17:07:29;;;;;;;11.18;6.95;;;;;;;;;;6190040;28;20316;-66
2021/11/06 17:10:33;;;;;;;8.90;6.15;;;;;;;;;;6186658;28;20731;-67
2021/11/06 17:13:35;;;;;;;12.05;6.53;;;;;;;;;;6206313;28;20351;-66
2021/11/06 17:16:36;;;;;;;7.90;5.50;;;;;;;;;;6178035;28;20544;-66
2021/11/06 17:19:37;;;;;;;9.13;5.45;;;;;;;;;;6197564;28;20101;-66
2021/11/06 17:22:40;;;;;;;13.30;7.57;;;;;;;;;;6191143;28;20137;-66
2021/11/06 17:25:42;;;;;;;12.68;7.60;;;;;;;;;;6193285;28;20050;-66
2021/11/06 17:28:43;;;;;;;19.10;9.35;;;;;;;;;;6204430;28;20050;-66
2021/11/06 17:31:44;;;;;;;18.38;10.02;;;;;;;;;;6188446;28;20052;-66
2021/11/06 17:34:46;;;;;;;13.50;7.95;;;;;;;;;;6200715;28;20066;-66
2021/11/06 17:37:49;;;;;;;17.23;9.73;;;;;;;;;;6189502;28;20046;-66
2021/11/06 17:40:50;;;;;;;14.40;8.33;;;;;;;;;;6193585;28;20144;-66
2021/11/06 17:43:52;;;;;;;15.10;8.48;;;;;;;;;;6209686;28;20053;-65
2021/11/06 17:46:54;;;;;;;17.52;9.32;;;;;;;;;;6175518;28;20057;-66
2021/11/06 17:50:03;;;;;;;18.48;11.15;;;;;;;;;;6209715;28;20478;-66
2021/11/06 17:53:11;;;;;;;18.40;10.77;;;;;;;;;;6195710;28;20511;-65
2021/11/06 17:56:12;;;;;;;14.68;9.50;;;;;;;;;;6202972;28;20050;-66
2021/11/06 17:59:13;;;;;;;14.88;8.82;;;;;;;;;;6209490;28;20062;-65
2021/11/06 18:02:15;;;;;;;15.05;8.85;;;;;;;;;;6196875;28;20129;-65
2021/11/06 18:05:17;;;;;;;13.77;8.63;;;;;;;;;;6202627;28;20057;-66
2021/11/06 18:08:20;;;;;;;12.38;8.45;;;;;;;;;;6205168;28;20046;-65
2021/11/06 18:11:21;;;;;;;15.87;9.53;;;;;;;;;;6203457;28;20495;-65